Seaspan Saigon — VRBT7 — position and weather

sailwx.info

Track history (hours):
 
Tides and Currents Weather Stations Pressure Air Temp Water Temp Dewpoint Dewpoint Depression Visibility Wind Speed Wind Dir Waves Ship Positions

Seaspan Saigon

Last reported at 2017-Mar-26 01:07 UTC. Time now 2017-Mar-27 02:45 UTC.
Position N 35°58' W 005°42'.

Length 260 m; draft 12.5 m.

Type: Ship (hazmat cat A). MMSI: 477106800.

Date/timePositionNaut miles runAvg speedWind from/ knotsBaromVisibWave heightAir tempDewpointWater temp
2017-Mar-26 01:07N 35°58' W 005°42'916.6
2017-Mar-26 00:34N 35°59' W 005°30'1716.7
2017-Mar-25 23:33N 36°04' W 005°11'21916.7
2017-Mar-25 10:28N 37°19' W 000°55'2116.9
2017-Mar-25 09:14N 37°33' W 000°35'1115.6
2017-Mar-25 08:33N 37°42' W 000°28'10312.9
2017-Mar-25 00:33N 39°25' W 000°17'2 2.0
2017-Mar-24 23:33N 39°27' W 000°19'0 0.0
2017-Mar-24 22:33N 39°27' W 000°19'0 0.0
2017-Mar-24 21:33N 39°27' W 000°19'0 0.0
2017-Mar-24 20:33N 39°27' W 000°19'0 0.0
2017-Mar-24 19:33N 39°27' W 000°19'0 0.0
2017-Mar-24 18:33N 39°27' W 000°19'0 0.0
2017-Mar-24 17:33N 39°27' W 000°19'0 0.0
2017-Mar-24 16:33N 39°27' W 000°19'0 0.0
2017-Mar-24 15:33N 39°27' W 000°19'0 0.0
2017-Mar-24 14:33N 39°27' W 000°19'0 0.0
2017-Mar-24 13:33N 39°27' W 000°19'0 0.0
2017-Mar-24 12:33N 39°27' W 000°19'0 0.0
2017-Mar-24 11:33N 39°27' W 000°19'7 7.0
2017-Mar-24 10:33N 39°26' W 000°10'5811.5
2017-Mar-24 05:33N 39°51' E 000°58'1212.5
2017-Mar-24 04:33N 40°01' E 001°07'1312.5
2017-Mar-24 03:33N 40°12' E 001°14'1212.0
2017-Mar-24 02:33N 40°22' E 001°24'1312.5
2017-Mar-24 01:33N 40°32' E 001°33'1312.6
2017-Mar-24 00:33N 40°43' E 001°42'1212.2
2017-Mar-23 23:33N 40°53' E 001°51'1212.1
2017-Mar-23 22:33N 41°03' E 001°60'1711.7
2017-Mar-23 21:07N 41°18' E 002°10'17 1.5
2017-Mar-23 09:20N 41°19' E 002°33'2514.1
2017-Mar-23 07:33N 41°24' E 003°06'3313.8
2017-Mar-23 05:09N 41°34' E 003°48'813.5
2017-Mar-23 04:32N 41°39' E 003°57'16513.7
2017-Mar-22 16:31N 43°08' E 007°05'1313.3
2017-Mar-22 15:33N 43°15' E 007°19'1312.8
2017-Mar-22 14:33N 43°21' E 007°35'1313.3
2017-Mar-22 13:33N 43°28' E 007°50'1313.3
2017-Mar-22 12:33N 43°37' E 008°03'1814.1
2017-Mar-22 11:19N 43°51' E 008°19'1013.9
2017-Mar-22 10:34N 43°58' E 008°30'1413.9
2017-Mar-22 09:34N 44°11' E 008°35'1313.3
2017-Mar-22 08:34N 44°23' E 008°43'4 3.6
2017-Mar-22 07:33N 44°25' E 008°47'0 0.0
2017-Mar-22 06:32N 44°25' E 008°47'0 0.0
2017-Mar-22 05:32N 44°25' E 008°47'0 0.0
2017-Mar-22 04:32N 44°25' E 008°47'0 0.0
2017-Mar-22 03:32N 44°25' E 008°47'0 0.0
2017-Mar-22 02:32N 44°25' E 008°47'0 0.0
2017-Mar-22 01:32N 44°25' E 008°47'0 0.0
2017-Mar-22 00:32N 44°25' E 008°47'0 0.0
2017-Mar-21 23:29N 44°25' E 008°47'0 0.0
2017-Mar-21 22:32N 44°25' E 008°47'0 0.0
2017-Mar-21 21:32N 44°25' E 008°47'0 0.0
2017-Mar-21 20:29N 44°25' E 008°47'0 0.0
2017-Mar-21 19:32N 44°25' E 008°47'0 0.0
2017-Mar-21 18:29N 44°25' E 008°47'0 0.0
2017-Mar-21 17:32N 44°25' E 008°47'0 0.0
2017-Mar-21 16:32N 44°25' E 008°47'0 0.0
2017-Mar-21 15:32N 44°25' E 008°47'0 0.0
2017-Mar-21 14:29N 44°25' E 008°47'0 0.0
2017-Mar-21 13:29N 44°25' E 008°47'0 0.0
2017-Mar-21 12:32N 44°25' E 008°47'0 0.0
2017-Mar-21 11:32N 44°25' E 008°47'0 0.0
2017-Mar-21 10:32N 44°25' E 008°47'0 0.0
2017-Mar-21 09:32N 44°25' E 008°47'1 1.0
2017-Mar-21 08:33N 44°25' E 008°46'5 5.4
2017-Mar-21 07:33N 44°20' E 008°43'8 8.0
2017-Mar-21 06:33N 44°12' E 008°45'0 0.4
2017-Mar-21 05:33N 44°12' E 008°46'1 0.6
2017-Mar-21 04:33N 44°12' E 008°47'1 0.5
2017-Mar-21 03:33N 44°12' E 008°47'1 0.5
2017-Mar-21 02:33N 44°12' E 008°48'0 0.4
2017-Mar-21 01:33N 44°12' E 008°49'1 0.5
2017-Mar-21 00:33N 44°11' E 008°49'1 0.6
2017-Mar-20 23:33N 44°12' E 008°50'0 0.5
2017-Mar-20 22:33N 44°12' E 008°51'0 0.3
2017-Mar-20 21:33N 44°12' E 008°51'0 0.2
2017-Mar-20 20:33N 44°12' E 008°51'1 0.7
2017-Mar-20 19:33N 44°11' E 008°51'8 8.0
2017-Mar-20 18:33N 44°05' E 008°58'1312.6
2017-Mar-20 17:33N 43°57' E 009°12'1313.0
2017-Mar-20 16:33N 43°49' E 009°25'1312.6
2017-Mar-20 15:33N 43°40' E 009°38'1212.2
2017-Mar-20 14:33N 43°33' E 009°52'1212.2
2017-Mar-20 13:33N 43°31' E 010°08'8 8.0
2017-Mar-20 12:33N 43°34' E 010°18'0 0.4
2017-Mar-20 11:32N 43°35' E 010°18'0 0.0
2017-Mar-20 10:29N 43°35' E 010°18'0 0.1
2017-Mar-20 09:29N 43°35' E 010°18'0 0.1
2017-Mar-20 08:32N 43°35' E 010°18'0 0.0
2017-Mar-20 07:32N 43°35' E 010°18'0 0.0
2017-Mar-20 06:32N 43°35' E 010°18'0 0.0
2017-Mar-20 05:32N 43°35' E 010°18'0 0.0
2017-Mar-20 04:31N 43°35' E 010°18'0 0.0
2017-Mar-20 03:28N 43°35' E 010°18'0 0.0
2017-Mar-20 02:31N 43°35' E 010°18'0 0.0
2017-Mar-20 01:31N 43°35' E 010°18'0 0.0
2017-Mar-20 00:31N 43°35' E 010°18'0 0.0
2017-Mar-19 23:31N 43°35' E 010°18'0 0.0
2017-Mar-19 22:31N 43°35' E 010°18'0 0.0
2017-Mar-19 21:31N 43°35' E 010°18'0 0.0
2017-Mar-19 20:31N 43°35' E 010°18'0 0.0
2017-Mar-19 19:28N 43°35' E 010°18'0 0.0
2017-Mar-19 18:31N 43°35' E 010°18'0 0.1
2017-Mar-19 17:31N 43°35' E 010°18'0 0.1
2017-Mar-19 16:28N 43°35' E 010°18'0 0.0
2017-Mar-19 15:31N 43°35' E 010°18'0 0.0
2017-Mar-19 14:31N 43°35' E 010°18'0 0.0
2017-Mar-19 13:31N 43°35' E 010°18'0 0.0
2017-Mar-19 12:31N 43°35' E 010°18'0 0.0
2017-Mar-19 11:31N 43°35' E 010°18'0 0.0
2017-Mar-19 10:31N 43°35' E 010°18'0 0.0
2017-Mar-19 09:32N 43°35' E 010°18'3 3.3
2017-Mar-19 08:33N 43°32' E 010°16'10 9.8
2017-Mar-19 07:33N 43°25' E 010°07'1414.5
2017-Mar-19 06:33N 43°11' E 010°02'24614.3
2017-Mar-18 13:22N 39°05' E 009°43'1114.0
2017-Mar-18 12:33N 38°58' E 009°32'1514.7
2017-Mar-18 11:32N 39°03' E 009°14'1111.4
2017-Mar-18 10:33N 39°12' E 009°05'1 1.2
2017-Mar-18 09:33N 39°13' E 009°04'0 0.0
2017-Mar-18 08:33N 39°13' E 009°04'0 0.0
2017-Mar-18 07:33N 39°13' E 009°04'0 0.0
2017-Mar-18 06:33N 39°13' E 009°04'0 0.0
2017-Mar-18 05:33N 39°13' E 009°04'0 0.0
2017-Mar-18 04:33N 39°13' E 009°04'0 0.0
2017-Mar-18 03:33N 39°13' E 009°04'0 0.0
2017-Mar-18 02:33N 39°13' E 009°04'0 0.0
2017-Mar-18 01:33N 39°13' E 009°04'0 0.0
2017-Mar-18 00:33N 39°13' E 009°04'0 0.0
2017-Mar-17 23:33N 39°13' E 009°04'0 0.0
2017-Mar-17 22:33N 39°13' E 009°04'0 0.0
2017-Mar-17 21:33N 39°13' E 009°04'0 0.0
2017-Mar-17 20:33N 39°13' E 009°04'0 0.0
2017-Mar-17 19:33N 39°13' E 009°04'0 0.0
2017-Mar-17 18:33N 39°13' E 009°04'0 0.0
2017-Mar-17 17:33N 39°13' E 009°04'0 0.0
2017-Mar-17 16:33N 39°13' E 009°04'0 0.0
2017-Mar-17 15:33N 39°13' E 009°04'0 0.0
2017-Mar-17 14:33N 39°13' E 009°04'0 0.0
2017-Mar-17 13:33N 39°13' E 009°04'0 0.0
2017-Mar-17 12:33N 39°13' E 009°04'0 0.0
2017-Mar-17 11:33N 39°13' E 009°04'0 0.2
2017-Mar-17 10:33N 39°13' E 009°04'5 5.3
2017-Mar-17 09:33N 39°08' E 009°06'9 9.4
2017-Mar-17 08:33N 38°59' E 009°09'1212.3
2017-Mar-17 07:33N 38°48' E 009°01'2311.3
2017-Mar-17 05:33N 38°30' E 008°44'5513.1
2017-Mar-17 01:21N 38°30' E 007°33'1012.9
2017-Mar-17 00:33N 38°30' E 007°20'1313.4
2017-Mar-16 23:33N 38°30' E 007°03'1313.4
2017-Mar-16 22:33N 38°30' E 006°46'12213.5
2017-Mar-16 13:32N 38°30' E 004°11'1613.1
2017-Mar-16 12:17N 38°30' E 003°50'1012.8
2017-Mar-16 11:33N 38°30' E 003°38'1312.9
2017-Mar-16 10:33N 38°31' E 003°22'1313.2
2017-Mar-16 09:33N 38°40' E 003°08'1413.6
2017-Mar-16 08:33N 38°48' E 002°55'1413.9
2017-Mar-16 07:33N 38°57' E 002°41'1313.4
2017-Mar-16 06:33N 39°05' E 002°27'1313.1
2017-Mar-16 05:33N 39°13' E 002°14'1312.7
2017-Mar-16 04:33N 39°21' E 002°01'1212.4
2017-Mar-16 03:33N 39°22' E 001°45'1313.0
2017-Mar-16 02:33N 39°23' E 001°29'1312.7
2017-Mar-16 01:33N 39°23' E 001°12'  
Track history (hours):
 
Tides and Currents Weather Stations Pressure Air Temp Water Temp Dewpoint Dewpoint Depression Visibility Wind Speed Wind Dir Waves Ship Positions

Seaspan Saigon

Last reported at 2017-Mar-26 01:07 UTC. Time now 2017-Mar-27 02:45 UTC.
Position N 35°58' W 005°42'.

Length 260 m; draft 12.5 m.

Type: Ship (hazmat cat A). MMSI: 477106800.

Date/timePositionNaut miles runAvg speedWind from/ knotsBaromVisibWave heightAir tempDewpointWater temp
2017-Mar-26 01:07N 35°58' W 005°42'916.6
2017-Mar-26 00:34N 35°59' W 005°30'1716.7
2017-Mar-25 23:33N 36°04' W 005°11'21916.7
2017-Mar-25 10:28N 37°19' W 000°55'2116.9
2017-Mar-25 09:14N 37°33' W 000°35'1115.6
2017-Mar-25 08:33N 37°42' W 000°28'10312.9
2017-Mar-25 00:33N 39°25' W 000°17'2 2.0
2017-Mar-24 23:33N 39°27' W 000°19'0 0.0
2017-Mar-24 22:33N 39°27' W 000°19'0 0.0
2017-Mar-24 21:33N 39°27' W 000°19'0 0.0
2017-Mar-24 20:33N 39°27' W 000°19'0 0.0
2017-Mar-24 19:33N 39°27' W 000°19'0 0.0
2017-Mar-24 18:33N 39°27' W 000°19'0 0.0
2017-Mar-24 17:33N 39°27' W 000°19'0 0.0
2017-Mar-24 16:33N 39°27' W 000°19'0 0.0
2017-Mar-24 15:33N 39°27' W 000°19'0 0.0
2017-Mar-24 14:33N 39°27' W 000°19'0 0.0
2017-Mar-24 13:33N 39°27' W 000°19'0 0.0
2017-Mar-24 12:33N 39°27' W 000°19'0 0.0
2017-Mar-24 11:33N 39°27' W 000°19'7 7.0
2017-Mar-24 10:33N 39°26' W 000°10'5811.5
2017-Mar-24 05:33N 39°51' E 000°58'1212.5
2017-Mar-24 04:33N 40°01' E 001°07'1312.5
2017-Mar-24 03:33N 40°12' E 001°14'1212.0
2017-Mar-24 02:33N 40°22' E 001°24'1312.5
2017-Mar-24 01:33N 40°32' E 001°33'1312.6
2017-Mar-24 00:33N 40°43' E 001°42'1212.2
2017-Mar-23 23:33N 40°53' E 001°51'1212.1
2017-Mar-23 22:33N 41°03' E 001°60'1711.7
2017-Mar-23 21:07N 41°18' E 002°10'17 1.5
2017-Mar-23 09:20N 41°19' E 002°33'2514.1
2017-Mar-23 07:33N 41°24' E 003°06'3313.8
2017-Mar-23 05:09N 41°34' E 003°48'813.5
2017-Mar-23 04:32N 41°39' E 003°57'16513.7
2017-Mar-22 16:31N 43°08' E 007°05'1313.3
2017-Mar-22 15:33N 43°15' E 007°19'1312.8
2017-Mar-22 14:33N 43°21' E 007°35'1313.3
2017-Mar-22 13:33N 43°28' E 007°50'1313.3
2017-Mar-22 12:33N 43°37' E 008°03'1814.1
2017-Mar-22 11:19N 43°51' E 008°19'1013.9
2017-Mar-22 10:34N 43°58' E 008°30'1413.9
2017-Mar-22 09:34N 44°11' E 008°35'1313.3
2017-Mar-22 08:34N 44°23' E 008°43'4 3.6
2017-Mar-22 07:33N 44°25' E 008°47'0 0.0
2017-Mar-22 06:32N 44°25' E 008°47'0 0.0
2017-Mar-22 05:32N 44°25' E 008°47'0 0.0
2017-Mar-22 04:32N 44°25' E 008°47'0 0.0
2017-Mar-22 03:32N 44°25' E 008°47'0 0.0
2017-Mar-22 02:32N 44°25' E 008°47'0 0.0
2017-Mar-22 01:32N 44°25' E 008°47'0 0.0
2017-Mar-22 00:32N 44°25' E 008°47'0 0.0
2017-Mar-21 23:29N 44°25' E 008°47'0 0.0
2017-Mar-21 22:32N 44°25' E 008°47'0 0.0
2017-Mar-21 21:32N 44°25' E 008°47'0 0.0
2017-Mar-21 20:29N 44°25' E 008°47'0 0.0
2017-Mar-21 19:32N 44°25' E 008°47'0 0.0
2017-Mar-21 18:29N 44°25' E 008°47'0 0.0
2017-Mar-21 17:32N 44°25' E 008°47'0 0.0
2017-Mar-21 16:32N 44°25' E 008°47'0 0.0
2017-Mar-21 15:32N 44°25' E 008°47'0 0.0
2017-Mar-21 14:29N 44°25' E 008°47'0 0.0
2017-Mar-21 13:29N 44°25' E 008°47'0 0.0
2017-Mar-21 12:32N 44°25' E 008°47'0 0.0
2017-Mar-21 11:32N 44°25' E 008°47'0 0.0
2017-Mar-21 10:32N 44°25' E 008°47'0 0.0
2017-Mar-21 09:32N 44°25' E 008°47'1 1.0
2017-Mar-21 08:33N 44°25' E 008°46'5 5.4
2017-Mar-21 07:33N 44°20' E 008°43'8 8.0
2017-Mar-21 06:33N 44°12' E 008°45'0 0.4
2017-Mar-21 05:33N 44°12' E 008°46'1 0.6
2017-Mar-21 04:33N 44°12' E 008°47'1 0.5
2017-Mar-21 03:33N 44°12' E 008°47'1 0.5
2017-Mar-21 02:33N 44°12' E 008°48'0 0.4
2017-Mar-21 01:33N 44°12' E 008°49'1 0.5
2017-Mar-21 00:33N 44°11' E 008°49'1 0.6
2017-Mar-20 23:33N 44°12' E 008°50'0 0.5
2017-Mar-20 22:33N 44°12' E 008°51'0 0.3
2017-Mar-20 21:33N 44°12' E 008°51'0 0.2
2017-Mar-20 20:33N 44°12' E 008°51'1 0.7
2017-Mar-20 19:33N 44°11' E 008°51'8 8.0
2017-Mar-20 18:33N 44°05' E 008°58'1312.6
2017-Mar-20 17:33N 43°57' E 009°12'1313.0
2017-Mar-20 16:33N 43°49' E 009°25'1312.6
2017-Mar-20 15:33N 43°40' E 009°38'1212.2
2017-Mar-20 14:33N 43°33' E 009°52'1212.2
2017-Mar-20 13:33N 43°31' E 010°08'8 8.0
2017-Mar-20 12:33N 43°34' E 010°18'0 0.4
2017-Mar-20 11:32N 43°35' E 010°18'0 0.0
2017-Mar-20 10:29N 43°35' E 010°18'0 0.1
2017-Mar-20 09:29N 43°35' E 010°18'0 0.1
2017-Mar-20 08:32N 43°35' E 010°18'0 0.0
2017-Mar-20 07:32N 43°35' E 010°18'0 0.0
2017-Mar-20 06:32N 43°35' E 010°18'0 0.0
2017-Mar-20 05:32N 43°35' E 010°18'0 0.0
2017-Mar-20 04:31N 43°35' E 010°18'0 0.0
2017-Mar-20 03:28N 43°35' E 010°18'0 0.0
2017-Mar-20 02:31N 43°35' E 010°18'0 0.0
2017-Mar-20 01:31N 43°35' E 010°18'0 0.0
2017-Mar-20 00:31N 43°35' E 010°18'0 0.0
2017-Mar-19 23:31N 43°35' E 010°18'0 0.0
2017-Mar-19 22:31N 43°35' E 010°18'0 0.0
2017-Mar-19 21:31N 43°35' E 010°18'0 0.0
2017-Mar-19 20:31N 43°35' E 010°18'0 0.0
2017-Mar-19 19:28N 43°35' E 010°18'0 0.0
2017-Mar-19 18:31N 43°35' E 010°18'0 0.1
2017-Mar-19 17:31N 43°35' E 010°18'0 0.1
2017-Mar-19 16:28N 43°35' E 010°18'0 0.0
2017-Mar-19 15:31N 43°35' E 010°18'0 0.0
2017-Mar-19 14:31N 43°35' E 010°18'0 0.0
2017-Mar-19 13:31N 43°35' E 010°18'0 0.0
2017-Mar-19 12:31N 43°35' E 010°18'0 0.0
2017-Mar-19 11:31N 43°35' E 010°18'0 0.0
2017-Mar-19 10:31N 43°35' E 010°18'0 0.0
2017-Mar-19 09:32N 43°35' E 010°18'3 3.3
2017-Mar-19 08:33N 43°32' E 010°16'10 9.8
2017-Mar-19 07:33N 43°25' E 010°07'1414.5
2017-Mar-19 06:33N 43°11' E 010°02'24614.3
2017-Mar-18 13:22N 39°05' E 009°43'1114.0
2017-Mar-18 12:33N 38°58' E 009°32'1514.7
2017-Mar-18 11:32N 39°03' E 009°14'1111.4
2017-Mar-18 10:33N 39°12' E 009°05'1 1.2
2017-Mar-18 09:33N 39°13' E 009°04'0 0.0
2017-Mar-18 08:33N 39°13' E 009°04'0 0.0
2017-Mar-18 07:33N 39°13' E 009°04'0 0.0
2017-Mar-18 06:33N 39°13' E 009°04'0 0.0
2017-Mar-18 05:33N 39°13' E 009°04'0 0.0
2017-Mar-18 04:33N 39°13' E 009°04'0 0.0
2017-Mar-18 03:33N 39°13' E 009°04'0 0.0
2017-Mar-18 02:33N 39°13' E 009°04'0 0.0
2017-Mar-18 01:33N 39°13' E 009°04'0 0.0
2017-Mar-18 00:33N 39°13' E 009°04'0 0.0
2017-Mar-17 23:33N 39°13' E 009°04'0 0.0
2017-Mar-17 22:33N 39°13' E 009°04'0 0.0
2017-Mar-17 21:33N 39°13' E 009°04'0 0.0
2017-Mar-17 20:33N 39°13' E 009°04'0 0.0
2017-Mar-17 19:33N 39°13' E 009°04'0 0.0
2017-Mar-17 18:33N 39°13' E 009°04'0 0.0
2017-Mar-17 17:33N 39°13' E 009°04'0 0.0
2017-Mar-17 16:33N 39°13' E 009°04'0 0.0
2017-Mar-17 15:33N 39°13' E 009°04'0 0.0
2017-Mar-17 14:33N 39°13' E 009°04'0 0.0
2017-Mar-17 13:33N 39°13' E 009°04'0 0.0
2017-Mar-17 12:33N 39°13' E 009°04'0 0.0
2017-Mar-17 11:33N 39°13' E 009°04'0 0.2
2017-Mar-17 10:33N 39°13' E 009°04'5 5.3
2017-Mar-17 09:33N 39°08' E 009°06'9 9.4
2017-Mar-17 08:33N 38°59' E 009°09'1212.3
2017-Mar-17 07:33N 38°48' E 009°01'2311.3
2017-Mar-17 05:33N 38°30' E 008°44'5513.1
2017-Mar-17 01:21N 38°30' E 007°33'1012.9
2017-Mar-17 00:33N 38°30' E 007°20'1313.4
2017-Mar-16 23:33N 38°30' E 007°03'1313.4
2017-Mar-16 22:33N 38°30' E 006°46'12213.5
2017-Mar-16 13:32N 38°30' E 004°11'1613.1
2017-Mar-16 12:17N 38°30' E 003°50'1012.8
2017-Mar-16 11:33N 38°30' E 003°38'1312.9
2017-Mar-16 10:33N 38°31' E 003°22'1313.2
2017-Mar-16 09:33N 38°40' E 003°08'1413.6
2017-Mar-16 08:33N 38°48' E 002°55'1413.9
2017-Mar-16 07:33N 38°57' E 002°41'1313.4
2017-Mar-16 06:33N 39°05' E 002°27'1313.1
2017-Mar-16 05:33N 39°13' E 002°14'1312.7
2017-Mar-16 04:33N 39°21' E 002°01'1212.4
2017-Mar-16 03:33N 39°22' E 001°45'1313.0
2017-Mar-16 02:33N 39°23' E 001°29'1312.7
2017-Mar-16 01:33N 39°23' E 001°12'  

Dump ship's entire track history